SMRA60 UAOL 250000
AAXX 25001
60060 32/// /0306 10189 20174 40172 8////=
60101 31340 82006 10198 20176 40179 50005 71022 888// 333 82706 83813 86620=
60107 32457 73002 10238 20201 40165 50010 876// 333 83710 86623 95380=
60115 32258 13317 10195 20187 40152 51018 81600 333 81705=
60135 32550 83503 10200 20150 40176 56001 885// 333 88621=
60141 31204 83105 10182 20184 39516 40184 52001 74742 886// 333 88703=
60150 11308 80000 10171 20171 39532 40173 58001 69931 74655 886// 333 88706=
60210 32986 03603 10273 21157 38983 48520 52004=
60230 12960 00307 10207 20146 40158 50003 555 00068=
60252 32560 21703 10187 20152 40169 50001 82500 333 82626=
60265 37960 02102 10267 21052 38854 40166 52005 700// 333 1//// 2//// 5////=
60318 32550 52904 10217 20175 40163 50004 85200 333 85820=
60340 32458 73308 10216 20170 40161 51011 876// 333 86713 84616=
62009 32860 21404 10258 20218 39971 4//// 57001 82030 333 82357=
62011 32960 01510 10253 20068 39323 48/// 52003=
64210 32456 70000 10227 20204 29087 39778 40130 875// 333 58007 87616=
64570 11557 81802 10213 20212 39633 40131 60231 70192 885// 333 0//65 58020 88620=
64810 12460 60000 10246 20230 30097 40127 69981 83530 333 59006 83613 86364=
64820 32460 61404 10246 20246 30120 40129 83502 333 59006 83610 85070=
67002 32580 11703 10210 20132 30120 40163 81200 333 0//19 58011 81820 924// 94904=
67005 14970 /2108 10244 20199 40158 60001 700// 333 58013 90710 91114 555 60005=
68098 36/// /0000 10112 20079 30069 40179 58006 333 10229 20109 91003 555 91017=
68382 36/// /2623 10111 20086 39438 48584 58005 333 1//// 20013 91067 555 91026=
68392 36/// /0203 10117 20104 38794 48386 57003 333 10235 20114 91004 555 91004=



SMUS60 KWBC 250000
AAXX 25004
60005 06/// /2804 10206 20162 30142 40179 51009 60001 333 60007=
60025 02580 10000 10205 20173 30101 40191 50005 60001 81500 333 60007=
60030 02970 00109 10199 20161 30135 40190 51009 60001 80000 333 60007=
60040 02482 10404 10194 20162 30164 40189 50006 60001 81500 333 60007=
60338 06/// /3003 10224 20198 30099 40163 51011 60001 333 60007=
60351 12565 30000 10210 20183 40153 58006 60001 82130 333 0//00 82823 95990=
60360 12560 72403 10210 20176 40134 58008 60001 82232 333 0//00 82823 83360 85070 95990=
60369 12560 30000 10222 20204 40136 58010 60001 83100 333 0//00 83823 91827=
60390 12558 20507 10198 20190 40147 57013 60001 82200 333 0//00 82820 95990=
60402 12460 30604 10225 20202 40152 58006 60001 83800 333 0//00 81816 83820 95990=
60419 12560 39902 10193 20130 40129 58002 60001 81130 333 0//00 81826 83360 95990=
60425 12560 10607 10272 20175 40114 52006 60001 81100 333 0//00 81826 95990=
60452 12960 20000 10221 20203 40118 52013 60001 82030 333 0//00 82360=
60468 12960 30000 10205 20124 39214 48527 58012 60001 80002 333 0//00 83070 95990=
60475 12660 43403 10190 20105 39222 48525 58008 60001 81232 333 0//00 81840 83360 95990=
60490 12565 22412 10227 20193 40133 52028 60001 82500 333 0//00 82626 95990=
60507 12960 40000 10254 20112 40102 52005 60001 84030 333 0//00 84360 95990=
60511 12960 31605 10228 20110 39059 48541 58001 60001 83080 333 0//00 83359 95990=
60525 12660 20603 10307 20127 40095 58001 60001 82200 333 0//00 82840 95990=
60531 12960 00000 10203 20184 40143 52024 60001 333 0//00 95990=
60550 12560 30408 10255 20068 38672 48538 58001 60001 83500 333 0//00 83630 95990=
60555 11660 50906 10313 20114 40093 58017 60001 70191 83230 333 0//00 83840 83360=
60559 12960 01802 10310 20122 40089 58007 60001 333 0//00=
60566 12650 40000 10320 20038 40094 55002 60001 83230 333 0//00 83840 84360=
60571 12960 02304 10297 21020 39216 48538 50004 60001 333 0//00 95990=
60580 12660 21303 10322 20072 40089 58005 60001 82200 333 0//00 82840=
60581 12960 01006 10332 20109 40096 58004 60001 333 0//00=
60590 12960 01702 10275 20098 40097 58004 60001 333 0//00=
60607 12960 00805 10340 2//// 40076 50006 60001 333 0//00=
60611 12660 20701 10278 20021 40103 58005 60001 82100 333 0//00 82846=
60620 12960 02606 10345 2//// 40071 58001 60001 333 0//00=
60630 12960 00810 10311 21055 40081 50000 60001 333 0//00=
60640 12960 01304 10314 20063 40083 58003 60001 333 0//00=
60656 12960 02718 10216 20073 40110 50002 60001 333 0//00=
60670 12960 00208 10295 20089 39062 48542 50000 60001 333 0//00 95990=
60680 11630 60908 10254 20072 38658 48540 58009 60001 70622 83230 333 0//00 83846 84360 95990=
61701 32460 32508 10258 20236 40129 83500 333 58000 83612=
61970 36/// /2205 10241 20185 30163 40175 333 58012=
61980 14886 81706 10222 20143 40192 60001 700// 333 58010 90710 91112 555 60005=
61998 16/// /3110 11008 21035 30083 40121 50000 60001 333 58110 90710 91117 555 60005=
62002 32960 01803 10260 20133 39431 48543 57011=
62007 32958 00907 10235 20212 40114 55007=
62008 32960 02108 10250 20131 39346 48528 55001=
62012 32960 01210 10246 20216 30109 40128 51003=
62016 32960 41406 10241 20209 30122 40153 56006 84030 333 84360=
62053 31558 20305 10215 20191 39988 40145 57012 71000 82100 333 82825=
62062 32560 43612 10238 20203 40124 54000 84200 333 84825=
62259 32960 00606 10335 20141 40084 58004=
63980 42480 49909 10257 20234 40112 84800 333 58006 84817 943// 91116=
64401 32558 70000 10220 20201 39770 40142 875// 333 0//00 58016 87620=
64450 32957 22504 10226 20202 39775 40129 80002 333 0//00 58010 82080=
64458 11460 60000 10222 20211 39716 40101 69971 70396 82530 333 0//13 59002 82610 86363=
64501 32358 51806 10248 20237 30129 40138 85500 333 0//00 59002 81608 85630=
65306 32960 60000 10245 20235 39784 40113 82032 333 0//00 59009 82363 85076=
65319 32960 80000 10240 20225 39634 40110 84032 333 0//00 59005 84361 84076=
65330 32360 72006 10235 20220 39673 40111 83532 333 0//00 59011 83608 86361=
65335 11460 71804 10230 20228 39900 40123 60061 70366 86532 333 0//55 59010 86610 83360=
65338 32958 52204 10229 20223 3//// 4//// 80002 333 0//00 5//// 85076=
65344 32460 72206 10260 20231 30117 40128 81502 333 0//00 59015 81611 85076=
65361 11460 70000 10225 20225 3//// 4//// 69941 70396 875// 333 5//// 87610=
65376 32460 71802 10230 20217 39669 40131 82552 333 59017 82613 84363 87076=
65578 32558 21804 10253 20236 30121 40129 81530 333 59010 81620=
67027 32680 21404 10233 20136 30141 40162 57007 81530 333 0//00 81640 555 82360=
67083 32570 50000 10142 20134 38787 48556 58009 85500 333 0//00 85620=
67095 31465 72204 10195 20187 30191 40198 56005 71522 878// 333 0//18 83817 86633=
67197 32470 30814 10200 20176 30190 40200 58004 83800 333 0//00 82816 555 82633=
67261 32570 81808 10220 20162 40172 86230 333 59011=
67283 32980 02602 10198 20182 40200 333 59009=
67297 32965 0//// 10260 20146 40201 333 58005=
67323 32980 00000 10187 20165 40217 57007=
67335 32980 00000 10177 20158 40192 53002=
68110 36/// /1005 10108 21040 38330 48556 58002 333 10236 20105 91007 555 91025=
68906 31498 73025 10131 20104 39947 40011 58020 72588 8227/ 333 10139 20128 91052 555 91001=
68994 11193 83318 10063 20051 39905 49934 58008 69983 76166 885// 333 10092 20041 91027=